sensor_id;sensor_type;location;lat;lon;timestamp;P1;durP1;ratioP1;P2;durP2;ratioP2
37937;SDS011;23763;48.130;11.602;2023-07-30T00:01:30;5.35;;;4.95;;
37937;SDS011;23763;48.130;11.602;2023-07-30T00:03:56;5.38;;;5.07;;
37937;SDS011;23763;48.130;11.602;2023-07-30T00:06:21;5.40;;;5.10;;
37937;SDS011;23763;48.130;11.602;2023-07-30T00:08:47;5.30;;;5.00;;
37937;SDS011;23763;48.130;11.602;2023-07-30T00:11:12;5.45;;;5.13;;
37937;SDS011;23763;48.130;11.602;2023-07-30T00:13:38;5.60;;;5.35;;
37937;SDS011;23763;48.130;11.602;2023-07-30T00:16:03;5.13;;;4.88;;
37937;SDS011;23763;48.130;11.602;2023-07-30T00:18:29;5.65;;;5.35;;
37937;SDS011;23763;48.130;11.602;2023-07-30T00:20:54;5.28;;;4.97;;
37937;SDS011;23763;48.130;11.602;2023-07-30T00:23:20;5.38;;;5.07;;
37937;SDS011;23763;48.130;11.602;2023-07-30T00:25:46;4.93;;;4.72;;
37937;SDS011;23763;48.130;11.602;2023-07-30T00:28:11;5.90;;;5.60;;
37937;SDS011;23763;48.130;11.602;2023-07-30T00:30:37;5.53;;;5.22;;
37937;SDS011;23763;48.130;11.602;2023-07-30T00:33:02;5.03;;;4.82;;
37937;SDS011;23763;48.130;11.602;2023-07-30T00:35:28;5.65;;;5.35;;
37937;SDS011;23763;48.130;11.602;2023-07-30T00:37:53;5.80;;;5.50;;
37937;SDS011;23763;48.130;11.602;2023-07-30T00:40:19;5.88;;;5.47;;
37937;SDS011;23763;48.130;11.602;2023-07-30T00:42:44;5.57;;;5.28;;
37937;SDS011;23763;48.130;11.602;2023-07-30T00:45:10;5.72;;;5.43;;
37937;SDS011;23763;48.130;11.602;2023-07-30T00:47:36;5.80;;;5.47;;
37937;SDS011;23763;48.130;11.602;2023-07-30T00:50:04;5.38;;;5.07;;
37937;SDS011;23763;48.130;11.602;2023-07-30T00:52:30;5.38;;;5.10;;
37937;SDS011;23763;48.130;11.602;2023-07-30T00:54:57;5.60;;;5.30;;
37937;SDS011;23763;48.130;11.602;2023-07-30T00:57:25;5.15;;;4.95;;
37937;SDS011;23763;48.130;11.602;2023-07-30T00:59:51;5.25;;;4.97;;
37937;SDS011;23763;48.130;11.602;2023-07-30T01:02:18;5.70;;;5.40;;
37937;SDS011;23763;48.130;11.602;2023-07-30T01:04:44;5.10;;;4.90;;
37937;SDS011;23763;48.130;11.602;2023-07-30T01:07:10;5.45;;;5.15;;
37937;SDS011;23763;48.130;11.602;2023-07-30T01:09:36;5.65;;;5.35;;
37937;SDS011;23763;48.130;11.602;2023-07-30T01:12:02;5.20;;;5.00;;
37937;SDS011;23763;48.130;11.602;2023-07-30T01:14:29;5.78;;;5.47;;
37937;SDS011;23763;48.130;11.602;2023-07-30T01:16:56;5.20;;;5.00;;
37937;SDS011;23763;48.130;11.602;2023-07-30T01:19:22;5.53;;;5.22;;
37937;SDS011;23763;48.130;11.602;2023-07-30T01:21:48;5.35;;;5.05;;
37937;SDS011;23763;48.130;11.602;2023-07-30T01:24:13;5.10;;;4.80;;
37937;SDS011;23763;48.130;11.602;2023-07-30T01:29:07;5.53;;;5.22;;
37937;SDS011;23763;48.130;11.602;2023-07-30T01:31:38;5.13;;;4.93;;
37937;SDS011;23763;48.130;11.602;2023-07-30T01:34:06;5.88;;;5.47;;
37937;SDS011;23763;48.130;11.602;2023-07-30T01:36:33;7.85;;;5.18;;
37937;SDS011;23763;48.130;11.602;2023-07-30T01:39:00;5.57;;;5.22;;
37937;SDS011;23763;48.130;11.602;2023-07-30T01:41:26;5.50;;;5.20;;
37937;SDS011;23763;48.130;11.602;2023-07-30T01:43:53;5.53;;;5.22;;
37937;SDS011;23763;48.130;11.602;2023-07-30T01:46:19;5.05;;;4.72;;
37937;SDS011;23763;48.130;11.602;2023-07-30T01:48:44;5.28;;;4.97;;
37937;SDS011;23763;48.130;11.602;2023-07-30T01:51:10;5.30;;;5.00;;
37937;SDS011;23763;48.130;11.602;2023-07-30T01:53:35;5.50;;;5.20;;
37937;SDS011;23763;48.130;11.602;2023-07-30T01:56:01;5.55;;;5.25;;
37937;SDS011;23763;48.130;11.602;2023-07-30T01:58:26;5.70;;;5.38;;
37937;SDS011;23763;48.130;11.602;2023-07-30T02:00:52;5.50;;;5.30;;
37937;SDS011;23763;48.130;11.602;2023-07-30T02:03:17;5.65;;;5.32;;
37937;SDS011;23763;48.130;11.602;2023-07-30T02:05:43;5.45;;;5.15;;
37937;SDS011;23763;48.130;11.602;2023-07-30T02:08:09;5.95;;;5.63;;
37937;SDS011;23763;48.130;11.602;2023-07-30T02:10:35;6.03;;;5.53;;
37937;SDS011;23763;48.130;11.602;2023-07-30T02:13:00;6.00;;;5.70;;
37937;SDS011;23763;48.130;11.602;2023-07-30T02:15:26;5.68;;;5.38;;
37937;SDS011;23763;48.130;11.602;2023-07-30T02:17:51;5.95;;;5.40;;
37937;SDS011;23763;48.130;11.602;2023-07-30T02:20:17;5.53;;;5.22;;
37937;SDS011;23763;48.130;11.602;2023-07-30T02:22:42;6.13;;;5.82;;
37937;SDS011;23763;48.130;11.602;2023-07-30T02:25:08;6.20;;;5.90;;
37937;SDS011;23763;48.130;11.602;2023-07-30T02:27:34;5.93;;;5.65;;
37937;SDS011;23763;48.130;11.602;2023-07-30T02:29:59;5.95;;;5.55;;
37937;SDS011;23763;48.130;11.602;2023-07-30T02:32:25;5.55;;;5.32;;
37937;SDS011;23763;48.130;11.602;2023-07-30T02:34:50;6.20;;;5.80;;
37937;SDS011;23763;48.130;11.602;2023-07-30T02:37:16;5.88;;;5.38;;
37937;SDS011;23763;48.130;11.602;2023-07-30T02:39:41;5.65;;;5.35;;
37937;SDS011;23763;48.130;11.602;2023-07-30T02:42:07;5.32;;;5.07;;
37937;SDS011;23763;48.130;11.602;2023-07-30T02:44:32;5.57;;;5.28;;
37937;SDS011;23763;48.130;11.602;2023-07-30T02:46:58;6.32;;;5.82;;
37937;SDS011;23763;48.130;11.602;2023-07-30T02:49:23;5.72;;;5.43;;
37937;SDS011;23763;48.130;11.602;2023-07-30T02:51:49;5.82;;;5.53;;
37937;SDS011;23763;48.130;11.602;2023-07-30T02:54:15;7.63;;;6.80;;
37937;SDS011;23763;48.130;11.602;2023-07-30T02:56:46;6.25;;;5.75;;
37937;SDS011;23763;48.130;11.602;2023-07-30T02:59:11;5.97;;;5.68;;
37937;SDS011;23763;48.130;11.602;2023-07-30T03:01:37;6.18;;;5.78;;
37937;SDS011;23763;48.130;11.602;2023-07-30T03:04:03;7.18;;;6.00;;
37937;SDS011;23763;48.130;11.602;2023-07-30T03:06:29;6.00;;;5.70;;
37937;SDS011;23763;48.130;11.602;2023-07-30T03:08:54;6.43;;;5.97;;
37937;SDS011;23763;48.130;11.602;2023-07-30T03:11:21;6.32;;;5.93;;
37937;SDS011;23763;48.130;11.602;2023-07-30T03:13:47;5.93;;;5.63;;
37937;SDS011;23763;48.130;11.602;2023-07-30T03:16:12;6.47;;;6.07;;
37937;SDS011;23763;48.130;11.602;2023-07-30T03:18:39;6.57;;;6.28;;
37937;SDS011;23763;48.130;11.602;2023-07-30T03:21:04;6.43;;;6.13;;
37937;SDS011;23763;48.130;11.602;2023-07-30T03:23:30;6.78;;;6.38;;
37937;SDS011;23763;48.130;11.602;2023-07-30T03:25:56;6.25;;;5.95;;
37937;SDS011;23763;48.130;11.602;2023-07-30T03:28:23;6.55;;;6.15;;
37937;SDS011;23763;48.130;11.602;2023-07-30T03:30:48;6.30;;;6.00;;
37937;SDS011;23763;48.130;11.602;2023-07-30T03:33:14;6.10;;;5.70;;
37937;SDS011;23763;48.130;11.602;2023-07-30T03:35:40;6.40;;;5.88;;
37937;SDS011;23763;48.130;11.602;2023-07-30T03:38:05;6.30;;;5.90;;
37937;SDS011;23763;48.130;11.602;2023-07-30T03:40:31;6.70;;;6.30;;
37937;SDS011;23763;48.130;11.602;2023-07-30T03:42:56;6.90;;;6.50;;
37937;SDS011;23763;48.130;11.602;2023-07-30T03:45:22;6.57;;;6.18;;
37937;SDS011;23763;48.130;11.602;2023-07-30T03:47:48;6.50;;;5.95;;
37937;SDS011;23763;48.130;11.602;2023-07-30T03:50:13;7.05;;;6.50;;
37937;SDS011;23763;48.130;11.602;2023-07-30T03:52:39;6.35;;;5.85;;
37937;SDS011;23763;48.130;11.602;2023-07-30T03:55:04;7.40;;;6.70;;
37937;SDS011;23763;48.130;11.602;2023-07-30T03:57:30;6.60;;;6.20;;
37937;SDS011;23763;48.130;11.602;2023-07-30T03:59:56;7.00;;;6.50;;
37937;SDS011;23763;48.130;11.602;2023-07-30T04:02:21;6.40;;;5.93;;
37937;SDS011;23763;48.130;11.602;2023-07-30T04:04:47;6.35;;;6.05;;
37937;SDS011;23763;48.130;11.602;2023-07-30T04:07:14;6.53;;;6.05;;
37937;SDS011;23763;48.130;11.602;2023-07-30T04:09:41;6.78;;;6.38;;
37937;SDS011;23763;48.130;11.602;2023-07-30T04:12:06;7.10;;;6.70;;
37937;SDS011;23763;48.130;11.602;2023-07-30T04:14:32;7.25;;;6.75;;
37937;SDS011;23763;48.130;11.602;2023-07-30T04:16:58;6.43;;;6.00;;
37937;SDS011;23763;48.130;11.602;2023-07-30T04:19:23;6.70;;;6.30;;
37937;SDS011;23763;48.130;11.602;2023-07-30T04:21:49;6.97;;;6.57;;
37937;SDS011;23763;48.130;11.602;2023-07-30T04:24:14;6.68;;;6.28;;
37937;SDS011;23763;48.130;11.602;2023-07-30T04:26:40;7.30;;;6.70;;
37937;SDS011;23763;48.130;11.602;2023-07-30T04:29:05;7.35;;;6.88;;
37937;SDS011;23763;48.130;11.602;2023-07-30T04:31:31;6.60;;;6.28;;
37937;SDS011;23763;48.130;11.602;2023-07-30T04:33:57;6.45;;;5.95;;
37937;SDS011;23763;48.130;11.602;2023-07-30T04:36:23;6.93;;;6.40;;
37937;SDS011;23763;48.130;11.602;2023-07-30T04:38:49;6.88;;;6.47;;
37937;SDS011;23763;48.130;11.602;2023-07-30T04:41:14;6.80;;;6.40;;
37937;SDS011;23763;48.130;11.602;2023-07-30T04:43:42;6.72;;;6.13;;
37937;SDS011;23763;48.130;11.602;2023-07-30T04:46:07;6.78;;;6.38;;
37937;SDS011;23763;48.130;11.602;2023-07-30T04:48:33;6.50;;;6.10;;
37937;SDS011;23763;48.130;11.602;2023-07-30T04:50:58;6.25;;;5.78;;
37937;SDS011;23763;48.130;11.602;2023-07-30T04:53:24;6.43;;;6.03;;
37937;SDS011;23763;48.130;11.602;2023-07-30T04:55:54;6.30;;;5.90;;
37937;SDS011;23763;48.130;11.602;2023-07-30T04:58:20;6.40;;;6.10;;
37937;SDS011;23763;48.130;11.602;2023-07-30T05:00:46;6.03;;;5.63;;
37937;SDS011;23763;48.130;11.602;2023-07-30T05:03:12;6.00;;;5.68;;
37937;SDS011;23763;48.130;11.602;2023-07-30T05:05:37;5.93;;;5.60;;
37937;SDS011;23763;48.130;11.602;2023-07-30T05:08:03;6.13;;;5.72;;
37937;SDS011;23763;48.130;11.602;2023-07-30T05:10:28;5.93;;;5.60;;
37937;SDS011;23763;48.130;11.602;2023-07-30T05:12:54;6.18;;;5.78;;
37937;SDS011;23763;48.130;11.602;2023-07-30T05:15:20;6.00;;;5.70;;
37937;SDS011;23763;48.130;11.602;2023-07-30T05:17:45;5.95;;;5.70;;
37937;SDS011;23763;48.130;11.602;2023-07-30T05:20:11;5.70;;;5.40;;
37937;SDS011;23763;48.130;11.602;2023-07-30T05:22:36;5.70;;;5.40;;
37937;SDS011;23763;48.130;11.602;2023-07-30T05:25:02;6.07;;;5.68;;
37937;SDS011;23763;48.130;11.602;2023-07-30T05:27:28;5.85;;;5.55;;
37937;SDS011;23763;48.130;11.602;2023-07-30T05:29:54;5.97;;;5.68;;
37937;SDS011;23763;48.130;11.602;2023-07-30T05:32:20;5.57;;;5.28;;
37937;SDS011;23763;48.130;11.602;2023-07-30T05:34:46;5.85;;;5.57;;
37937;SDS011;23763;48.130;11.602;2023-07-30T05:37:11;6.28;;;5.75;;
37937;SDS011;23763;48.130;11.602;2023-07-30T05:39:37;6.05;;;5.75;;
37937;SDS011;23763;48.130;11.602;2023-07-30T05:42:02;5.90;;;5.60;;
37937;SDS011;23763;48.130;11.602;2023-07-30T05:44:28;6.18;;;5.68;;
37937;SDS011;23763;48.130;11.602;2023-07-30T05:46:53;6.00;;;5.70;;
37937;SDS011;23763;48.130;11.602;2023-07-30T05:49:19;6.75;;;5.80;;
37937;SDS011;23763;48.130;11.602;2023-07-30T05:51:45;5.75;;;5.40;;
37937;SDS011;23763;48.130;11.602;2023-07-30T05:54:11;5.32;;;5.07;;
37937;SDS011;23763;48.130;11.602;2023-07-30T05:56:37;5.88;;;5.47;;
37937;SDS011;23763;48.130;11.602;2023-07-30T05:59:03;6.10;;;5.70;;
37937;SDS011;23763;48.130;11.602;2023-07-30T06:01:28;5.20;;;5.00;;
37937;SDS011;23763;48.130;11.602;2023-07-30T06:03:54;5.65;;;5.35;;
37937;SDS011;23763;48.130;11.602;2023-07-30T06:06:19;5.70;;;5.40;;
37937;SDS011;23763;48.130;11.602;2023-07-30T06:08:51;6.03;;;5.65;;
37937;SDS011;23763;48.130;11.602;2023-07-30T06:11:18;6.18;;;5.78;;
37937;SDS011;23763;48.130;11.602;2023-07-30T06:13:43;5.78;;;5.38;;
37937;SDS011;23763;48.130;11.602;2023-07-30T06:16:09;5.80;;;5.40;;
37937;SDS011;23763;48.130;11.602;2023-07-30T06:18:35;5.38;;;5.07;;
37937;SDS011;23763;48.130;11.602;2023-07-30T06:21:00;5.63;;;5.22;;
37937;SDS011;23763;48.130;11.602;2023-07-30T06:23:26;5.35;;;5.05;;
37937;SDS011;23763;48.130;11.602;2023-07-30T06:25:52;5.82;;;5.50;;
37937;SDS011;23763;48.130;11.602;2023-07-30T06:28:17;5.88;;;5.40;;
37937;SDS011;23763;48.130;11.602;2023-07-30T06:30:43;6.50;;;6.00;;
37937;SDS011;23763;48.130;11.602;2023-07-30T06:33:08;5.68;;;5.38;;
37937;SDS011;23763;48.130;11.602;2023-07-30T06:35:34;5.20;;;5.00;;
37937;SDS011;23763;48.130;11.602;2023-07-30T06:38:00;6.00;;;5.65;;
37937;SDS011;23763;48.130;11.602;2023-07-30T06:40:25;5.82;;;5.53;;
37937;SDS011;23763;48.130;11.602;2023-07-30T06:42:51;5.97;;;5.55;;
37937;SDS011;23763;48.130;11.602;2023-07-30T06:45:16;5.78;;;5.50;;
37937;SDS011;23763;48.130;11.602;2023-07-30T06:47:42;6.03;;;5.72;;
37937;SDS011;23763;48.130;11.602;2023-07-30T06:50:08;5.78;;;5.45;;
37937;SDS011;23763;48.130;11.602;2023-07-30T06:52:34;5.63;;;5.32;;
37937;SDS011;23763;48.130;11.602;2023-07-30T06:55:00;6.30;;;5.80;;
37937;SDS011;23763;48.130;11.602;2023-07-30T06:57:28;5.43;;;5.13;;
37937;SDS011;23763;48.130;11.602;2023-07-30T06:59:54;6.10;;;5.70;;
37937;SDS011;23763;48.130;11.602;2023-07-30T07:02:20;6.07;;;5.68;;
37937;SDS011;23763;48.130;11.602;2023-07-30T07:04:45;5.75;;;5.45;;
37937;SDS011;23763;48.130;11.602;2023-07-30T07:07:11;5.47;;;5.18;;
37937;SDS011;23763;48.130;11.602;2023-07-30T07:09:37;5.53;;;5.22;;
37937;SDS011;23763;48.130;11.602;2023-07-30T07:12:02;5.95;;;5.63;;
37937;SDS011;23763;48.130;11.602;2023-07-30T07:14:28;6.25;;;5.95;;
37937;SDS011;23763;48.130;11.602;2023-07-30T07:16:54;5.43;;;5.13;;
37937;SDS011;23763;48.130;11.602;2023-07-30T07:19:21;5.10;;;4.82;;
37937;SDS011;23763;48.130;11.602;2023-07-30T07:21:46;5.93;;;5.63;;
37937;SDS011;23763;48.130;11.602;2023-07-30T07:24:12;5.13;;;4.93;;
37937;SDS011;23763;48.130;11.602;2023-07-30T07:26:38;6.05;;;5.50;;
37937;SDS011;23763;48.130;11.602;2023-07-30T07:29:03;5.85;;;5.47;;
37937;SDS011;23763;48.130;11.602;2023-07-30T07:31:29;7.07;;;6.57;;
37937;SDS011;23763;48.130;11.602;2023-07-30T07:33:54;5.90;;;5.60;;
37937;SDS011;23763;48.130;11.602;2023-07-30T07:36:20;5.60;;;5.40;;
37937;SDS011;23763;48.130;11.602;2023-07-30T07:38:46;5.65;;;5.28;;
37937;SDS011;23763;48.130;11.602;2023-07-30T07:41:15;5.82;;;5.53;;
37937;SDS011;23763;48.130;11.602;2023-07-30T07:43:41;5.88;;;5.57;;
37937;SDS011;23763;48.130;11.602;2023-07-30T07:46:07;5.60;;;5.20;;
37937;SDS011;23763;48.130;11.602;2023-07-30T07:48:38;5.70;;;5.30;;
37937;SDS011;23763;48.130;11.602;2023-07-30T07:51:08;5.60;;;5.30;;
37937;SDS011;23763;48.130;11.602;2023-07-30T07:53:35;5.70;;;5.38;;
37937;SDS011;23763;48.130;11.602;2023-07-30T07:56:01;5.82;;;5.43;;
37937;SDS011;23763;48.130;11.602;2023-07-30T07:58:27;5.68;;;5.28;;
37937;SDS011;23763;48.130;11.602;2023-07-30T08:00:56;5.93;;;5.53;;
37937;SDS011;23763;48.130;11.602;2023-07-30T08:03:23;5.70;;;5.32;;
37937;SDS011;23763;48.130;11.602;2023-07-30T08:05:49;5.43;;;5.20;;
37937;SDS011;23763;48.130;11.602;2023-07-30T08:08:15;6.07;;;5.78;;
37937;SDS011;23763;48.130;11.602;2023-07-30T08:10:41;5.47;;;5.28;;
37937;SDS011;23763;48.130;11.602;2023-07-30T08:13:12;5.35;;;5.05;;
37937;SDS011;23763;48.130;11.602;2023-07-30T08:15:38;5.68;;;5.38;;
37937;SDS011;23763;48.130;11.602;2023-07-30T08:18:04;5.85;;;5.55;;
37937;SDS011;23763;48.130;11.602;2023-07-30T08:20:29;6.20;;;5.80;;
37937;SDS011;23763;48.130;11.602;2023-07-30T08:22:55;5.70;;;5.43;;
37937;SDS011;23763;48.130;11.602;2023-07-30T08:25:20;6.00;;;5.60;;
37937;SDS011;23763;48.130;11.602;2023-07-30T08:27:46;5.57;;;5.28;;
37937;SDS011;23763;48.130;11.602;2023-07-30T08:30:11;6.50;;;6.07;;
37937;SDS011;23763;48.130;11.602;2023-07-30T08:32:37;6.25;;;5.90;;
37937;SDS011;23763;48.130;11.602;2023-07-30T08:35:03;6.38;;;5.97;;
37937;SDS011;23763;48.130;11.602;2023-07-30T08:37:29;6.43;;;6.00;;
37937;SDS011;23763;48.130;11.602;2023-07-30T08:39:55;6.03;;;5.63;;
37937;SDS011;23763;48.130;11.602;2023-07-30T08:42:20;6.10;;;5.70;;
37937;SDS011;23763;48.130;11.602;2023-07-30T08:44:47;5.97;;;5.68;;
37937;SDS011;23763;48.130;11.602;2023-07-30T08:47:12;6.10;;;5.80;;
37937;SDS011;23763;48.130;11.602;2023-07-30T08:49:38;5.70;;;5.40;;
37937;SDS011;23763;48.130;11.602;2023-07-30T08:52:03;5.22;;;5.00;;
37937;SDS011;23763;48.130;11.602;2023-07-30T08:54:33;5.40;;;5.05;;
37937;SDS011;23763;48.130;11.602;2023-07-30T08:57:01;6.47;;;6.07;;
37937;SDS011;23763;48.130;11.602;2023-07-30T08:59:27;5.90;;;5.60;;
37937;SDS011;23763;48.130;11.602;2023-07-30T09:01:58;5.20;;;4.90;;
37937;SDS011;23763;48.130;11.602;2023-07-30T09:04:25;5.85;;;5.55;;
37937;SDS011;23763;48.130;11.602;2023-07-30T09:06:52;5.68;;;5.28;;
37937;SDS011;23763;48.130;11.602;2023-07-30T09:09:18;5.95;;;5.65;;
37937;SDS011;23763;48.130;11.602;2023-07-30T09:11:50;5.55;;;5.25;;
37937;SDS011;23763;48.130;11.602;2023-07-30T09:14:19;5.63;;;5.30;;
37937;SDS011;23763;48.130;11.602;2023-07-30T09:16:45;5.78;;;5.47;;
37937;SDS011;23763;48.130;11.602;2023-07-30T09:19:15;5.22;;;4.90;;
37937;SDS011;23763;48.130;11.602;2023-07-30T09:21:42;5.60;;;5.20;;
37937;SDS011;23763;48.130;11.602;2023-07-30T09:24:08;5.57;;;5.18;;
37937;SDS011;23763;48.130;11.602;2023-07-30T09:26:44;5.70;;;5.20;;
37937;SDS011;23763;48.130;11.602;2023-07-30T09:29:11;5.43;;;5.13;;
37937;SDS011;23763;48.130;11.602;2023-07-30T09:31:50;5.20;;;4.90;;
37937;SDS011;23763;48.130;11.602;2023-07-30T09:34:19;5.80;;;5.38;;
37937;SDS011;23763;48.130;11.602;2023-07-30T09:36:46;5.30;;;5.00;;
37937;SDS011;23763;48.130;11.602;2023-07-30T09:39:18;5.78;;;5.25;;
37937;SDS011;23763;48.130;11.602;2023-07-30T09:41:49;4.85;;;4.65;;
37937;SDS011;23763;48.130;11.602;2023-07-30T09:44:17;5.25;;;4.90;;
37937;SDS011;23763;48.130;11.602;2023-07-30T09:46:43;5.50;;;5.20;;
37937;SDS011;23763;48.130;11.602;2023-07-30T09:49:10;5.15;;;4.95;;
37937;SDS011;23763;48.130;11.602;2023-07-30T09:51:39;5.30;;;5.00;;
37937;SDS011;23763;48.130;11.602;2023-07-30T09:54:06;5.47;;;5.18;;
37937;SDS011;23763;48.130;11.602;2023-07-30T09:56:37;5.60;;;5.22;;
37937;SDS011;23763;48.130;11.602;2023-07-30T09:59:04;5.50;;;5.10;;
37937;SDS011;23763;48.130;11.602;2023-07-30T10:01:35;5.30;;;5.00;;
37937;SDS011;23763;48.130;11.602;2023-07-30T10:04:09;5.45;;;4.93;;
37937;SDS011;23763;48.130;11.602;2023-07-30T10:06:40;5.85;;;5.55;;
37937;SDS011;23763;48.130;11.602;2023-07-30T10:09:10;5.82;;;5.53;;
37937;SDS011;23763;48.130;11.602;2023-07-30T10:11:38;5.70;;;5.40;;
37937;SDS011;23763;48.130;11.602;2023-07-30T10:14:06;5.50;;;5.20;;
37937;SDS011;23763;48.130;11.602;2023-07-30T10:16:32;6.18;;;5.57;;
37937;SDS011;23763;48.130;11.602;2023-07-30T10:18:58;5.50;;;5.10;;
37937;SDS011;23763;48.130;11.602;2023-07-30T10:21:25;5.88;;;5.47;;
37937;SDS011;23763;48.130;11.602;2023-07-30T10:24:02;5.90;;;5.60;;
37937;SDS011;23763;48.130;11.602;2023-07-30T10:26:29;5.50;;;5.30;;
37937;SDS011;23763;48.130;11.602;2023-07-30T10:29:12;6.00;;;5.50;;
37937;SDS011;23763;48.130;11.602;2023-07-30T10:31:49;5.22;;;4.93;;
37937;SDS011;23763;48.130;11.602;2023-07-30T10:34:18;5.80;;;5.50;;
37937;SDS011;23763;48.130;11.602;2023-07-30T10:36:45;5.47;;;5.20;;
37937;SDS011;23763;48.130;11.602;2023-07-30T10:39:14;5.82;;;5.50;;
37937;SDS011;23763;48.130;11.602;2023-07-30T10:41:47;5.65;;;5.45;;
37937;SDS011;23763;48.130;11.602;2023-07-30T10:46:53;5.57;;;5.28;;
37937;SDS011;23763;48.130;11.602;2023-07-30T10:49:20;5.80;;;5.50;;
37937;SDS011;23763;48.130;11.602;2023-07-30T10:51:47;5.70;;;5.40;;
37937;SDS011;23763;48.130;11.602;2023-07-30T10:54:16;5.95;;;5.60;;
37937;SDS011;23763;48.130;11.602;2023-07-30T10:56:41;5.95;;;5.60;;
37937;SDS011;23763;48.130;11.602;2023-07-30T10:59:07;5.90;;;5.50;;
37937;SDS011;23763;48.130;11.602;2023-07-30T11:01:37;5.75;;;5.47;;
37937;SDS011;23763;48.130;11.602;2023-07-30T11:04:10;5.72;;;5.43;;
37937;SDS011;23763;48.130;11.602;2023-07-30T11:06:45;6.22;;;5.93;;
37937;SDS011;23763;48.130;11.602;2023-07-30T11:11:50;6.05;;;5.75;;
37937;SDS011;23763;48.130;11.602;2023-07-30T11:14:17;5.72;;;5.32;;
37937;SDS011;23763;48.130;11.602;2023-07-30T11:16:48;5.47;;;5.18;;
37937;SDS011;23763;48.130;11.602;2023-07-30T11:19:23;5.22;;;5.00;;
37937;SDS011;23763;48.130;11.602;2023-07-30T11:21:50;5.20;;;4.90;;
37937;SDS011;23763;48.130;11.602;2023-07-30T11:24:33;5.43;;;5.22;;
37937;SDS011;23763;48.130;11.602;2023-07-30T11:27:00;5.28;;;4.97;;
37937;SDS011;23763;48.130;11.602;2023-07-30T11:29:26;5.88;;;5.57;;
37937;SDS011;23763;48.130;11.602;2023-07-30T11:31:56;5.82;;;5.53;;
37937;SDS011;23763;48.130;11.602;2023-07-30T11:34:23;5.50;;;5.20;;
37937;SDS011;23763;48.130;11.602;2023-07-30T11:36:51;5.78;;;5.38;;
37937;SDS011;23763;48.130;11.602;2023-07-30T11:39:18;5.35;;;5.05;;
37937;SDS011;23763;48.130;11.602;2023-07-30T11:41:43;5.50;;;5.00;;
37937;SDS011;23763;48.130;11.602;2023-07-30T11:44:28;5.75;;;5.55;;
37937;SDS011;23763;48.130;11.602;2023-07-30T11:46:59;5.20;;;4.90;;
37937;SDS011;23763;48.130;11.602;2023-07-30T11:49:25;5.78;;;5.43;;
37937;SDS011;23763;48.130;11.602;2023-07-30T11:51:50;5.38;;;5.07;;
37937;SDS011;23763;48.130;11.602;2023-07-30T11:54:29;5.60;;;5.28;;
37937;SDS011;23763;48.130;11.602;2023-07-30T11:56:56;5.88;;;5.57;;
37937;SDS011;23763;48.130;11.602;2023-07-30T11:59:22;5.65;;;5.30;;
37937;SDS011;23763;48.130;11.602;2023-07-30T12:01:48;5.80;;;5.50;;
37937;SDS011;23763;48.130;11.602;2023-07-30T12:04:14;5.43;;;5.10;;
37937;SDS011;23763;48.130;11.602;2023-07-30T12:06:44;5.43;;;5.22;;
37937;SDS011;23763;48.130;11.602;2023-07-30T12:09:20;5.70;;;5.40;;
37937;SDS011;23763;48.130;11.602;2023-07-30T12:14:27;5.50;;;5.10;;
37937;SDS011;23763;48.130;11.602;2023-07-30T12:17:01;5.75;;;5.35;;
37937;SDS011;23763;48.130;11.602;2023-07-30T12:19:26;5.75;;;5.45;;
37937;SDS011;23763;48.130;11.602;2023-07-30T12:21:52;5.65;;;5.32;;
37937;SDS011;23763;48.130;11.602;2023-07-30T12:24:18;5.40;;;5.20;;
37937;SDS011;23763;48.130;11.602;2023-07-30T12:26:44;6.13;;;5.65;;
37937;SDS011;23763;48.130;11.602;2023-07-30T12:29:09;5.63;;;5.32;;
37937;SDS011;23763;48.130;11.602;2023-07-30T12:31:35;5.30;;;5.00;;
37937;SDS011;23763;48.130;11.602;2023-07-30T12:34:00;5.47;;;5.18;;
37937;SDS011;23763;48.130;11.602;2023-07-30T12:36:26;5.97;;;5.57;;
37937;SDS011;23763;48.130;11.602;2023-07-30T12:38:52;5.30;;;5.00;;
37937;SDS011;23763;48.130;11.602;2023-07-30T12:41:19;6.13;;;5.82;;
37937;SDS011;23763;48.130;11.602;2023-07-30T12:43:50;5.53;;;5.20;;
37937;SDS011;23763;48.130;11.602;2023-07-30T12:46:17;5.55;;;5.22;;
37937;SDS011;23763;48.130;11.602;2023-07-30T12:48:43;6.05;;;5.65;;
37937;SDS011;23763;48.130;11.602;2023-07-30T12:51:09;6.45;;;6.05;;
37937;SDS011;23763;48.130;11.602;2023-07-30T12:53:34;6.53;;;6.07;;
37937;SDS011;23763;48.130;11.602;2023-07-30T12:56:00;6.20;;;5.90;;
37937;SDS011;23763;48.130;11.602;2023-07-30T12:58:25;6.50;;;6.20;;
37937;SDS011;23763;48.130;11.602;2023-07-30T13:00:51;5.70;;;5.40;;
37937;SDS011;23763;48.130;11.602;2023-07-30T13:03:17;6.20;;;5.72;;
37937;SDS011;23763;48.130;11.602;2023-07-30T13:05:42;6.00;;;5.70;;
37937;SDS011;23763;48.130;11.602;2023-07-30T13:08:08;6.10;;;5.80;;
37937;SDS011;23763;48.130;11.602;2023-07-30T13:10:34;5.93;;;5.53;;
37937;SDS011;23763;48.130;11.602;2023-07-30T13:13:00;5.93;;;5.60;;
37937;SDS011;23763;48.130;11.602;2023-07-30T13:15:26;5.82;;;5.50;;
37937;SDS011;23763;48.130;11.602;2023-07-30T13:17:52;6.15;;;5.70;;
37937;SDS011;23763;48.130;11.602;2023-07-30T13:20:18;5.55;;;5.25;;
37937;SDS011;23763;48.130;11.602;2023-07-30T13:22:44;5.85;;;5.45;;
37937;SDS011;23763;48.130;11.602;2023-07-30T13:25:09;5.68;;;5.28;;
37937;SDS011;23763;48.130;11.602;2023-07-30T13:27:35;5.90;;;5.50;;
37937;SDS011;23763;48.130;11.602;2023-07-30T13:30:01;5.45;;;5.15;;
37937;SDS011;23763;48.130;11.602;2023-07-30T13:32:26;5.60;;;5.30;;
37937;SDS011;23763;48.130;11.602;2023-07-30T13:34:52;5.70;;;5.40;;
37937;SDS011;23763;48.130;11.602;2023-07-30T13:37:18;5.60;;;5.30;;
37937;SDS011;23763;48.130;11.602;2023-07-30T13:39:43;6.93;;;6.53;;
37937;SDS011;23763;48.130;11.602;2023-07-30T13:42:09;6.10;;;5.72;;
37937;SDS011;23763;48.130;11.602;2023-07-30T13:44:35;6.30;;;5.90;;
37937;SDS011;23763;48.130;11.602;2023-07-30T13:47:00;6.53;;;6.00;;
37937;SDS011;23763;48.130;11.602;2023-07-30T13:49:26;5.97;;;5.57;;
37937;SDS011;23763;48.130;11.602;2023-07-30T13:51:52;7.20;;;6.68;;
37937;SDS011;23763;48.130;11.602;2023-07-30T13:54:17;7.80;;;7.20;;
37937;SDS011;23763;48.130;11.602;2023-07-30T13:56:43;8.18;;;7.57;;
37937;SDS011;23763;48.130;11.602;2023-07-30T13:59:08;9.15;;;8.55;;
37937;SDS011;23763;48.130;11.602;2023-07-30T14:01:34;7.80;;;7.30;;
37937;SDS011;23763;48.130;11.602;2023-07-30T14:03:59;8.70;;;8.10;;
37937;SDS011;23763;48.130;11.602;2023-07-30T14:06:25;10.52;;;9.50;;
37937;SDS011;23763;48.130;11.602;2023-07-30T14:08:51;9.05;;;8.40;;
37937;SDS011;23763;48.130;11.602;2023-07-30T14:11:16;7.93;;;7.47;;
37937;SDS011;23763;48.130;11.602;2023-07-30T14:13:42;9.60;;;8.90;;
37937;SDS011;23763;48.130;11.602;2023-07-30T14:16:08;9.98;;;9.38;;
37937;SDS011;23763;48.130;11.602;2023-07-30T14:18:33;7.25;;;6.95;;
37937;SDS011;23763;48.130;11.602;2023-07-30T14:20:59;7.78;;;7.10;;
37937;SDS011;23763;48.130;11.602;2023-07-30T14:23:24;7.55;;;7.13;;
37937;SDS011;23763;48.130;11.602;2023-07-30T14:25:50;7.40;;;6.80;;
37937;SDS011;23763;48.130;11.602;2023-07-30T14:28:16;6.05;;;5.75;;
37937;SDS011;23763;48.130;11.602;2023-07-30T14:30:41;7.45;;;6.95;;
37937;SDS011;23763;48.130;11.602;2023-07-30T14:33:10;7.15;;;6.65;;
37937;SDS011;23763;48.130;11.602;2023-07-30T14:35:36;7.05;;;6.65;;
37937;SDS011;23763;48.130;11.602;2023-07-30T14:38:03;7.43;;;6.75;;
37937;SDS011;23763;48.130;11.602;2023-07-30T14:40:29;6.70;;;6.30;;